Cole Camp, MO

6:48 AM CST on December 18, 2014 (GMT -0600)
cole camp Lincoln | Change Station
CLOSE
Current Station
Personal Weather Station
Location: Cole Camp, MO
Elevation: 905 ft
Nearby Weather Stations
Active Advisory: Winter Weather Advisory

Elev 905 ft 38.40 °N, 93.20 °W | Updated 13 minutes ago

Snow
Snow
30.4 °F
Feels Like 30 °F
N
0.0
Wind Variable Wind from ENE
Gusts 1.0 mph

Today
High -- | Low -- °F
--% Chance of Precip.
Yesterday
High -- | Low -- °F
Precip. -- in
7:24 AM 4:54 PM
Waning Crescent, 15% visible
Pressure 30.25 in
Visibility 7.0 miles
Clouds Scattered Clouds 700 ft
Mostly Cloudy 4900 ft
Overcast 9000 ft
Windchill 30 °F
Dew Point 29 °F
Humidity 95%
Rainfall 0.00 in
Snow Depth Not available.
UV 0 out of 12
Pollen .20 out of 12
Air Quality Not available.
Flu Activity Not available.
METAR KDMO 181153Z AUTO 08006KT 7SM SCT007 BKN049 OVC090 M01/M02 A3022 RMK AO2 SNE33 SLP242 P0001 60003 70003 T10061017 10006 21006 55005

More Conditions Fewer Conditions

Pressure 30.25 in
Visibility 7.0 miles
Clouds Scattered Clouds 700 ft
Mostly Cloudy 4900 ft
Overcast 9000 ft
Windchill 30 °F
Dew Point 29 °F
Humidity 95%
Rainfall 0.00 in
Snow Depth Not available.
UV 0 out of 12
Pollen .20 out of 12
Air Quality Not available.
Flu Activity Not available.
METAR KDMO 181153Z AUTO 08006KT 7SM SCT007 BKN049 OVC090 M01/M02 A3022 RMK AO2 SNE33 SLP242 P0001 60003 70003 T10061017 10006 21006 55005

More Conditions Fewer Conditions

10-Day Weather Forecast

Almanac

Astronomy

Dec. 18, 2014 Rise Set
Actual Time
Civil Twilight
Nautical Twilight
Astronomical Twilight
Moon
Length of Visible Light
Length of Day
Tomorrow will be .
, % of the Moon is Illuminated

Today's Extremes

State Highs State Lows

Community

WunderPhotos

Upload Photos

1,778,923 photos uploaded!

WunderBlogs® & News

Nearby

Air Quality

  Air Quality AQ Index Pollutant
Not available.

Snow Depth

Station Depth Elevation

Earthquake Activity

City Distance Mag. Time & Date
Minimum magnitude displayed is 2.5.

Coastal Water Temperatures

Place Temperature

Nearby Weather Stations